This is the latest recevied weather packets stored in our database for station/object EA3IBE-10. If no packets are shown the sender has not sent any weather packets the latest 10 day(s).
| Time | Temp. | Humidity | Pressure | Rain* | Wind** | Luminosity | Snow |
|---|---|---|---|---|---|---|---|
| 1777236546 | 17.78° C | 90% | 1017.2 hPa | - | - | - | - |
| 1777234146 | 18.89° C | 72% | 1017.2 hPa | - | - | - | - |
| 1777231745 | 19.44° C | 71% | 1016.9 hPa | - | - | - | - |
| 1777229345 | 19.44° C | 76% | 1016.6 hPa | - | - | - | - |
| 1777226945 | 20.56° C | 61% | 1016.3 hPa | - | - | - | - |
| 1777224545 | 21.67° C | 54% | 1016.2 hPa | - | - | - | - |
| 1777222145 | 21.11° C | 56% | 1016.5 hPa | - | - | - | - |
| 1777219745 | 22.78° C | 49% | 1016.6 hPa | - | - | - | - |
| 1777217358 | 22.78° C | 48% | 1016.3 hPa | - | - | - | - |
| 1777217345 | 22.78° C | 48% | 1016.3 hPa | - | - | - | - |
| 1777214945 | 26.11° C | 42% | 1016.4 hPa | - | - | - | - |
| 1777212545 | 25.56° C | 43% | 1016.4 hPa | - | - | - | - |
| 1777210145 | 26.67° C | 41% | 1016.5 hPa | - | - | - | - |
| 1777207745 | 28.33° C | 38% | 1016.7 hPa | - | - | - | - |
| 1777205344 | 28.89° C | 39% | 1016.8 hPa | - | - | - | - |
| 1777202959 | 28.89° C | 38% | 1017.1 hPa | - | - | - | - |
| 1777202944 | 28.89° C | 38% | 1017.1 hPa | - | - | - | - |
| 1777200544 | 28.33° C | 38% | 1017.5 hPa | - | - | - | - |
| 1777198144 | 28.33° C | 39% | 1017.6 hPa | - | - | - | - |
| 1777195744 | 26.67° C | 42% | 1017.5 hPa | - | - | - | - |
| 1777193343 | 28.89° C | 38% | 1017.7 hPa | - | - | - | - |
| 1777190942 | 28.89° C | 42% | 1017.6 hPa | - | - | - | - |
| 1777188542 | 24.44° C | 56% | 1017.4 hPa | - | - | - | - |
| 1777186142 | 19.44° C | 81% | 1017.1 hPa | - | - | - | - |
| 1777183742 | 15° C | 100% | 1016.9 hPa | - | - | - | - |
* Rain since midnight (hover to see other rain measurements)
** Current wind speed in m/s (hover to see current wind gust speed)